Time;durP1;ratioP1;P1;durP2;ratioP2;P2;SDS_P1;SDS_P2;PMS_P1;PMS_P2;Temp;Humidity;BMP_temperature;BMP_pressure;BME280_temperature;BME280_humidity;BME280_pressure;Samples;Min_cycle;Max_cycle;Signal;HPM_P1;HPM_P2
2022/12/10 00:08:37;;;;;;;30.67;17.60;;;;;;;-0.44;100.00;96426.72;18282065;32;20053;-64
2022/12/10 00:18:40;;;;;;;27.07;17.47;;;;;;;-0.40;100.00;96427.88;18294971;32;20071;-64
2022/12/10 00:28:43;;;;;;;28.57;16.93;;;;;;;-0.38;100.00;96436.44;18294506;32;20062;-64
2022/12/10 00:38:47;;;;;;;32.20;18.87;;;;;;;-0.39;100.00;96446.25;18267113;32;20058;-64
2022/12/10 00:48:49;;;;;;;29.77;16.43;;;;;;;-0.41;100.00;96439.53;18293876;32;20073;-64
2022/12/10 00:58:52;;;;;;;27.73;16.43;;;;;;;-0.39;100.00;96434.81;18293112;32;20050;-64
2022/12/10 01:09:01;;;;;;;26.00;15.70;;;;;;;-0.37;100.00;96422.94;18293423;32;20089;-64
2022/12/10 01:19:05;;;;;;;27.50;15.40;;;;;;;-0.37;100.00;96438.88;18292892;32;20073;-64
2022/12/10 01:29:07;;;;;;;25.20;14.93;;;;;;;-0.37;100.00;96440.69;18292170;32;20058;-63
2022/12/10 01:39:13;;;;;;;32.30;16.97;;;;;;;-0.38;100.00;96452.38;18291719;32;20109;-64
2022/12/10 01:49:25;;;;;;;26.13;15.10;;;;;;;-0.39;100.00;96451.56;18299914;32;20062;-64
2022/12/10 01:59:30;;;;;;;26.60;14.53;;;;;;;-0.35;100.00;96462.53;18301988;32;20079;-63
2022/12/10 02:09:43;;;;;;;23.90;14.70;;;;;;;-0.37;100.00;96462.78;18287023;32;20058;-64
2022/12/10 02:20:00;;;;;;;26.70;15.97;;;;;;;-0.42;100.00;96464.50;18286384;32;20046;-64
2022/12/10 02:30:05;;;;;;;23.70;14.73;;;;;;;-0.40;100.00;96481.81;18300404;32;20057;-63
2022/12/10 02:40:15;;;;;;;24.20;14.43;;;;;;;-0.41;100.00;96480.19;18300012;32;20070;-63
2022/12/10 02:50:20;;;;;;;25.33;15.67;;;;;;;-0.38;100.00;96468.31;18299483;32;20355;-64
2022/12/10 03:00:24;;;;;;;;;;;;;;;-0.37;100.00;96468.09;18284691;32;20053;-64
2022/12/10 03:10:33;;;;;;;26.60;15.40;;;;;;;-0.35;100.00;96463.34;18298422;32;19961;-64
2022/12/10 03:20:41;;;;;;;24.60;15.43;;;;;;;-0.31;100.00;96470.88;18297944;32;20114;-64
2022/12/10 03:30:46;;;;;;;26.80;15.87;;;;;;;-0.31;100.00;96457.59;18298306;32;20062;-64
2022/12/10 03:40:48;;;;;;;24.63;14.63;;;;;;;-0.31;100.00;96452.28;18296685;32;20100;-64
2022/12/10 03:50:51;;;;;;;24.20;15.27;;;;;;;-0.30;100.00;96460.00;18296224;32;20058;-64
2022/12/10 04:00:53;;;;;;;27.27;16.20;;;;;;;-0.29;100.00;96450.19;18295515;32;20362;-64
2022/12/10 04:11:02;;;;;;;25.27;15.83;;;;;;;-0.28;100.00;96451.81;18295573;32;20167;-64
2022/12/10 04:31:26;;;;;;;25.37;16.07;;;;;;;-0.31;100.00;96457.59;18294757;32;20110;-64
2022/12/10 04:41:28;;;;;;;24.30;15.53;;;;;;;-0.30;100.00;96481.25;18294703;32;20069;-64
2022/12/10 04:51:31;;;;;;;21.77;14.03;;;;;;;-0.27;100.00;96482.66;18294163;32;20062;-64
2022/12/10 05:01:34;;;;;;;24.23;15.60;;;;;;;-0.28;100.00;96475.72;18292916;32;20100;-64
2022/12/10 05:11:37;;;;;;;23.77;14.73;;;;;;;-0.30;100.00;96473.28;18293089;32;20061;-64
2022/12/10 05:32:00;;;;;;;21.07;13.67;;;;;;;-0.26;100.00;96484.25;18303420;32;20057;-64
2022/12/10 05:42:03;;;;;;;21.07;14.00;;;;;;;-0.26;100.00;96508.16;18288704;32;20097;-64
2022/12/10 05:52:05;;;;;;;20.27;13.23;;;;;;;-0.27;100.00;96509.22;18302025;32;20081;-64
2022/12/10 06:02:08;;;;;;;21.80;13.33;;;;;;;-0.26;100.00;96511.63;18301503;32;20090;-64
2022/12/10 06:12:10;;;;;;;20.17;12.60;;;;;;;-0.23;100.00;96536.94;18287417;32;20434;-64
2022/12/10 06:22:12;;;;;;;20.73;12.77;;;;;;;-0.25;100.00;96542.44;18300689;32;20113;-64
2022/12/10 06:32:15;;;;;;;23.23;13.97;;;;;;;-0.24;100.00;96545.94;18299288;32;20073;-64
2022/12/10 06:42:17;;;;;;;22.60;13.80;;;;;;;-0.23;100.00;96556.31;18299951;32;20077;-64
2022/12/10 06:52:19;;;;;;;23.60;15.83;;;;;;;-0.22;100.00;96575.72;18299076;32;20115;-64
2022/12/10 07:02:22;;;;;;;25.33;16.00;;;;;;;-0.22;100.00;96584.53;18284843;32;20050;-64
2022/12/10 07:12:25;;;;;;;24.67;15.07;;;;;;;-0.20;100.00;96609.00;18298437;32;20472;-64
2022/12/10 07:22:28;;;;;;;22.27;14.30;;;;;;;-0.16;100.00;96609.34;18297934;32;20098;-64
2022/12/10 07:32:31;;;;;;;27.00;16.53;;;;;;;-0.14;100.00;96627.72;18283570;32;20095;-64
2022/12/10 07:42:33;;;;;;;26.07;16.43;;;;;;;-0.11;100.00;96621.94;18296008;32;20058;-64
2022/12/10 07:52:36;;;;;;;23.33;14.17;;;;;;;-0.08;100.00;96634.78;18296405;32;20109;-64
2022/12/10 08:02:38;;;;;;;28.90;16.13;;;;;;;-0.02;100.00;96642.66;18295318;32;20054;-64
2022/12/10 08:12:41;;;;;;;27.97;15.93;;;;;;;0.06;100.00;96654.00;18295296;32;20442;-64
2022/12/10 08:22:44;;;;;;;28.43;16.37;;;;;;;0.11;100.00;96670.91;18294989;32;20053;-64
2022/12/10 08:32:47;;;;;;;34.20;19.37;;;;;;;0.12;100.00;96677.00;18280710;32;20081;-64
2022/12/10 08:42:52;;;;;;;34.13;18.73;;;;;;;0.17;100.00;96682.47;18293886;32;20062;-64
2022/12/10 08:52:59;;;;;;;34.73;20.40;;;;;;;0.10;100.00;96692.37;18295254;32;20476;-64
2022/12/10 09:03:03;;;;;;;35.73;19.43;;;;;;;0.17;100.00;96703.72;18304247;32;20098;-64
2022/12/10 09:13:06;;;;;;;41.17;23.07;;;;;;;0.26;100.00;96715.66;18304205;32;20113;-64
2022/12/10 09:23:08;;;;;;;41.27;22.17;;;;;;;0.29;100.00;96733.81;18290045;32;20050;-64
2022/12/10 09:33:11;;;;;;;38.00;20.37;;;;;;;0.32;100.00;96749.31;18302958;32;20050;-64
2022/12/10 09:43:28;;;;;;;38.73;22.33;;;;;;;0.36;100.00;96748.84;18302394;32;20449;-64
2022/12/10 09:53:31;;;;;;;43.47;23.87;;;;;;;0.35;100.00;96760.53;18302168;32;20125;-64
2022/12/10 10:03:40;;;;;;;35.27;20.70;;;;;;;0.37;100.00;96761.09;18301362;32;20050;-64
2022/12/10 10:13:51;;;;;;;39.00;22.80;;;;;;;0.46;100.00;96754.44;18301215;32;20483;-64
2022/12/10 10:23:55;;;;;;;32.17;19.20;;;;;;;0.48;100.00;96757.66;18287405;32;20069;-64
2022/12/10 10:34:01;;;;;;;34.27;20.50;;;;;;;0.57;100.00;96761.63;18286183;32;20062;-64
2022/12/10 10:44:03;;;;;;;33.10;19.60;;;;;;;0.81;100.00;96762.47;18299846;32;20068;-64
2022/12/10 10:54:06;;;;;;;35.00;19.63;;;;;;;0.99;100.00;96764.22;18299481;32;20080;-64
2022/12/10 11:04:09;;;;;;;36.30;19.93;;;;;;;1.04;100.00;96760.06;18298601;32;20054;-64
2022/12/10 11:14:30;;;;;;;34.00;20.53;;;;;;;1.00;100.00;96771.19;18284245;32;20104;-64
2022/12/10 11:24:40;;;;;;;32.40;18.47;;;;;;;1.01;100.00;96777.28;18297660;32;20476;-64
2022/12/10 11:35:17;;;;;;;32.53;18.80;;;;;;;0.94;100.00;96785.37;18283488;32;20113;-64
2022/12/10 11:45:45;;;;;;;26.83;16.23;;;;;;;0.93;100.00;96788.28;18296810;32;20089;-64
2022/12/10 11:56:25;;;;;;;30.10;18.33;;;;;;;0.98;100.00;96791.06;18296585;32;20125;-64
2022/12/10 12:06:42;;;;;;;31.77;17.33;;;;;;;0.93;100.00;96802.41;18296001;32;20093;-64
2022/12/10 12:17:16;;;;;;;31.07;18.80;;;;;;;0.86;100.00;96822.19;18282554;32;20110;-64
2022/12/10 12:27:24;;;;;;;28.43;18.10;;;;;;;0.80;100.00;96826.56;18281442;32;20077;-64
2022/12/10 12:37:38;;;;;;;28.40;17.97;;;;;;;0.71;100.00;96827.94;18293990;32;20180;-64
2022/12/10 12:48:06;;;;;;;28.60;17.73;;;;;;;0.74;100.00;96836.28;18279947;32;20054;-64
2022/12/10 12:58:25;;;;;;;25.13;16.30;;;;;;;0.73;100.00;96849.81;18293728;32;20129;-64
2022/12/10 13:08:32;;;;;;;27.37;15.90;;;;;;;0.73;100.00;96853.28;18279691;32;20369;-64
2022/12/10 13:18:39;;;;;;;26.90;15.97;;;;;;;0.71;100.00;96857.19;18292858;32;20058;-65
2022/12/10 13:28:51;;;;;;;25.37;15.00;;;;;;;0.77;100.00;96861.63;18292859;32;20066;-65
2022/12/10 13:39:11;;;;;;;28.87;16.20;;;;;;;0.83;100.00;96876.66;18293300;32;20058;-65
2022/12/10 13:49:18;;;;;;;27.97;16.30;;;;;;;0.84;100.00;96883.63;18301905;32;20178;-65
2022/12/10 13:59:39;;;;;;;26.37;15.57;;;;;;;0.78;100.00;96887.19;18301790;32;20388;-65
2022/12/10 14:09:54;;;;;;;26.77;16.03;;;;;;;0.72;100.00;96912.84;18301841;32;20092;-65
2022/12/10 14:19:59;;;;;;;25.60;15.37;;;;;;;0.70;100.00;96919.44;18301220;32;20062;-66
2022/12/10 14:30:16;;;;;;;26.27;15.03;;;;;;;0.67;100.00;96934.00;18300570;32;20395;-65
2022/12/10 14:40:31;;;;;;;30.43;18.03;;;;;;;0.61;100.00;96937.56;18299815;32;20080;-65
2022/12/10 14:50:34;;;;;;;27.37;15.80;;;;;;;0.53;100.00;96951.97;18298563;32;20058;-66
2022/12/10 15:00:40;;;;;;;26.63;15.53;;;;;;;0.45;100.00;96955.75;18298542;32;20080;-66
2022/12/10 15:10:50;;;;;;;27.80;16.30;;;;;;;0.37;100.00;96964.03;18298675;32;20050;-66
2022/12/10 15:21:02;;;;;;;25.57;15.80;;;;;;;0.28;100.00;96968.81;18283949;32;20080;-66
2022/12/10 15:31:26;;;;;;;26.20;16.30;;;;;;;0.24;100.00;96975.63;18296724;32;20096;-66
2022/12/10 15:41:46;;;;;;;30.80;17.97;;;;;;;0.18;100.00;96984.47;18296801;32;20080;-66
2022/12/10 15:51:50;;;;;;;31.83;19.20;;;;;;;0.12;100.00;96994.16;18270324;32;20074;-66
2022/12/10 16:01:53;;;;;;;29.33;16.47;;;;;;;0.06;100.00;96995.03;18295401;32;20403;-66
2022/12/10 16:11:56;;;;;;;32.20;18.17;;;;;;;0.02;100.00;96993.84;18295653;32;20079;-66
2022/12/10 16:21:59;;;;;;;31.50;17.77;;;;;;;-0.03;100.00;96998.97;18295128;32;20102;-66
2022/12/10 16:32:02;;;;;;;33.10;18.33;;;;;;;-0.07;100.00;97016.41;18294982;32;20053;-66
2022/12/10 16:42:05;;;;;;;24.20;15.10;;;;;;;-0.10;100.00;97025.62;18294377;32;20071;-66
2022/12/10 16:52:13;;;;;;;25.77;15.57;;;;;;;-0.10;100.00;97032.78;18293580;32;20053;-66
2022/12/10 17:02:20;;;;;;;28.77;17.27;;;;;;;-0.13;100.00;97028.72;18293789;32;20046;-66
2022/12/10 17:12:23;;;;;;;27.77;15.90;;;;;;;-0.14;100.00;97045.69;18293387;32;20106;-66
2022/12/10 17:22:26;;;;;;;23.93;14.33;;;;;;;-0.15;100.00;97048.56;18289592;32;20076;-66
2022/12/10 17:32:31;;;;;;;24.20;14.80;;;;;;;-0.13;100.00;97054.47;18303442;32;20106;-66
2022/12/10 17:42:34;;;;;;;24.83;14.53;;;;;;;-0.18;100.00;97063.09;18303082;32;20058;-66
2022/12/10 17:52:37;;;;;;;27.37;15.90;;;;;;;-0.18;100.00;97066.56;18302385;32;20050;-66
2022/12/10 18:02:40;;;;;;;24.87;14.73;;;;;;;-0.20;100.00;97071.28;18301711;32;20058;-66
2022/12/10 18:12:43;;;;;;;26.23;15.53;;;;;;;-0.24;100.00;97070.06;18301439;32;20072;-66
2022/12/10 18:22:46;;;;;;;26.67;15.93;;;;;;;-0.24;100.00;97093.19;18300916;32;20046;-66
2022/12/10 18:32:49;;;;;;;24.40;14.60;;;;;;;-0.25;100.00;97096.87;18300807;32;20058;-66
2022/12/10 18:42:52;;;;;;;22.93;13.70;;;;;;;-0.37;100.00;97105.53;18299692;32;20073;-66
2022/12/10 18:52:55;;;;;;;23.90;13.93;;;;;;;-0.38;100.00;97100.44;18299460;32;20058;-66
2022/12/10 19:02:57;;;;;;;24.10;14.50;;;;;;;-0.42;100.00;97113.31;18298558;32;20054;-66
2022/12/10 19:13:00;;;;;;;23.27;14.80;;;;;;;-0.50;100.00;97102.94;18285302;32;20368;-66
2022/12/10 19:23:03;;;;;;;24.53;14.80;;;;;;;-0.55;100.00;97103.59;18297916;32;20085;-66
2022/12/10 19:33:05;;;;;;;29.03;16.47;;;;;;;-0.57;100.00;97104.81;18297669;32;20055;-66
2022/12/10 19:43:08;;;;;;;32.10;18.57;;;;;;;-0.63;100.00;97103.00;18296830;32;20119;-66
2022/12/10 19:53:15;;;;;;;35.30;19.70;;;;;;;-0.71;100.00;97115.50;18296717;32;20440;-66
2022/12/10 20:03:18;;;;;;;30.67;17.80;;;;;;;-0.73;100.00;97098.97;18295717;32;20114;-66
2022/12/10 20:13:21;;;;;;;30.00;18.57;;;;;;;-0.78;100.00;97112.06;18281744;32;20050;-66
2022/12/10 20:23:23;;;;;;;31.00;18.87;;;;;;;-0.76;100.00;97114.50;18295523;32;20120;-66
2022/12/10 20:33:26;;;;;;;33.93;19.20;;;;;;;-0.77;100.00;97102.25;18280836;32;20045;-66
2022/12/10 20:43:50;;;;;;;31.30;18.63;;;;;;;-0.79;100.00;97114.94;18294308;32;20081;-66
2022/12/10 20:53:53;;;;;;;31.00;17.70;;;;;;;-0.78;100.00;97116.56;18301286;32;20055;-66
2022/12/10 21:03:56;;;;;;;32.77;18.60;;;;;;;-0.79;100.00;97125.56;18304407;32;20410;-67
2022/12/10 21:14:00;;;;;;;31.27;18.17;;;;;;;-0.87;100.00;97114.13;18304524;32;20057;-66
2022/12/10 21:24:03;;;;;;;27.87;16.63;;;;;;;-1.05;100.00;97111.38;18303684;32;20399;-66
2022/12/10 21:34:06;;;;;;;28.17;17.33;;;;;;;-1.24;100.00;97105.09;18303563;32;20062;-66
2022/12/10 21:44:09;;;;;;;30.23;18.70;;;;;;;-1.41;100.00;97104.69;18302996;32;20105;-66
2022/12/10 21:54:12;;;;;;;31.87;18.23;;;;;;;-1.59;100.00;97100.88;18302478;32;20500;-66
2022/12/10 22:04:14;;;;;;;31.33;18.40;;;;;;;-1.83;100.00;97097.03;18301170;32;20089;-66
2022/12/10 22:14:18;;;;;;;24.90;15.90;;;;;;;-2.06;100.00;97103.53;18302060;32;20072;-66
2022/12/10 22:24:21;;;;;;;27.27;15.70;;;;;;;-2.33;100.00;97120.41;18300923;32;20058;-66
2022/12/10 22:34:24;;;;;;;26.87;16.23;;;;;;;-2.56;100.00;97127.72;18300581;32;20469;-66
2022/12/10 22:44:27;;;;;;;34.53;19.60;;;;;;;-2.76;100.00;97138.22;18286012;32;20058;-66
2022/12/10 22:54:30;;;;;;;29.73;17.90;;;;;;;-3.03;100.00;97118.78;18299482;32;20069;-66
2022/12/10 23:04:33;;;;;;;27.60;15.77;;;;;;;-3.20;100.00;97113.00;18298716;32;20058;-66
2022/12/10 23:14:35;;;;;;;27.30;15.80;;;;;;;-3.40;100.00;97110.25;18271163;32;20098;-66
2022/12/10 23:24:38;;;;;;;24.07;13.17;;;;;;;-3.55;100.00;97094.50;18297994;32;20154;-66
2022/12/10 23:34:41;;;;;;;27.77;16.03;;;;;;;-3.73;100.00;97084.44;18297477;32;20377;-66
2022/12/10 23:44:44;;;;;;;26.20;16.53;;;;;;;-3.86;100.00;97085.19;18297017;32;20494;-66
2022/12/10 23:54:46;;;;;;;25.07;13.10;;;;;;;-3.95;100.00;97071.31;18296658;32;20411;-66
